createdAt,value
2023-02-11T00:01:36.870Z,9.50
2023-02-11T00:04:06.406Z,9.40
2023-02-11T00:06:35.262Z,9.40
2023-02-11T00:09:03.720Z,9.40
2023-02-11T00:11:33.812Z,9.30
2023-02-11T00:14:08.496Z,9.30
2023-02-11T00:16:37.425Z,9.30
2023-02-11T00:19:06.519Z,9.30
2023-02-11T00:21:35.764Z,9.20
2023-02-11T00:24:03.583Z,9.20
2023-02-11T00:26:33.558Z,9.20
2023-02-11T00:29:01.735Z,9.10
2023-02-11T00:31:31.566Z,9.10
2023-02-11T00:33:58.300Z,9.10
2023-02-11T00:36:30.310Z,9.10
2023-02-11T00:39:00.485Z,9.10
2023-02-11T00:41:28.380Z,9.10
2023-02-11T00:44:01.369Z,9.10
2023-02-11T00:46:28.368Z,9.10
2023-02-11T00:48:57.546Z,9.10
2023-02-11T00:51:28.398Z,9.10
2023-02-11T00:53:55.896Z,9.10
2023-02-11T00:56:23.000Z,9.10
2023-02-11T00:58:49.882Z,9.10
2023-02-11T01:01:17.482Z,9.10
2023-02-11T01:03:46.318Z,9.10
2023-02-11T01:06:17.622Z,9.10
2023-02-11T01:08:47.324Z,9.10
2023-02-11T01:11:18.355Z,9.10
2023-02-11T01:13:46.170Z,9.10
2023-02-11T01:16:15.990Z,9.10
2023-02-11T01:18:47.683Z,9.00
2023-02-11T01:21:19.755Z,9.00
2023-02-11T01:23:46.413Z,9.00
2023-02-11T01:26:13.324Z,9.00
2023-02-11T01:28:40.191Z,9.00
2023-02-11T01:31:09.055Z,9.00
2023-02-11T01:33:35.811Z,9.00
2023-02-11T01:36:07.401Z,9.00
2023-02-11T01:38:35.591Z,8.90
2023-02-11T01:41:06.499Z,9.00
2023-02-11T01:43:40.636Z,8.90
2023-02-11T01:46:31.216Z,8.90
2023-02-11T01:49:04.754Z,8.90
2023-02-11T01:51:37.848Z,8.90
2023-02-11T01:54:25.696Z,8.90
2023-02-11T01:57:15.257Z,8.90
2023-02-11T01:59:50.310Z,8.90
2023-02-11T02:02:32.592Z,8.90
2023-02-11T02:05:18.911Z,8.90
2023-02-11T02:08:13.344Z,8.90
2023-02-11T02:10:48.213Z,8.90
2023-02-11T02:13:17.255Z,8.90
2023-02-11T02:15:53.358Z,8.90
2023-02-11T02:18:55.973Z,8.90
2023-02-11T02:22:07.284Z,9.00
2023-02-11T02:24:56.531Z,9.00
2023-02-11T02:28:05.106Z,9.00
2023-02-11T02:31:10.458Z,9.00
2023-02-11T02:33:58.232Z,9.00
2023-02-11T02:36:50.468Z,9.10
2023-02-11T02:39:29.998Z,9.10
2023-02-11T02:41:58.398Z,9.10
2023-02-11T02:44:25.772Z,9.10
2023-02-11T02:46:52.397Z,9.10
2023-02-11T02:49:21.368Z,9.10
2023-02-11T02:52:03.845Z,9.10
2023-02-11T02:55:02.631Z,9.10
2023-02-11T02:57:56.238Z,9.20
2023-02-11T03:00:34.832Z,9.20
2023-02-11T03:03:24.470Z,9.20
2023-02-11T03:06:15.247Z,9.20
2023-02-11T03:08:50.908Z,9.20
2023-02-11T03:11:19.269Z,9.20
2023-02-11T03:13:48.113Z,9.20
2023-02-11T03:16:23.241Z,9.20
2023-02-11T03:19:14.752Z,9.20
2023-02-11T03:21:43.616Z,9.20
2023-02-11T03:24:24.158Z,9.20
2023-02-11T03:26:54.640Z,9.30
2023-02-11T03:29:54.797Z,9.30
2023-02-11T03:32:30.994Z,9.30
2023-02-11T03:35:00.793Z,9.30
2023-02-11T03:37:43.155Z,9.30
2023-02-11T03:40:19.228Z,9.30
2023-02-11T03:42:53.256Z,9.30
2023-02-11T03:45:23.198Z,9.30
2023-02-11T03:47:54.821Z,9.30
2023-02-11T03:50:27.367Z,9.30
2023-02-11T03:53:00.433Z,9.30
2023-02-11T03:55:31.589Z,9.30
2023-02-11T03:57:59.014Z,9.30
2023-02-11T04:00:35.431Z,9.30
2023-02-11T04:03:03.112Z,9.30
2023-02-11T04:05:29.778Z,9.30
2023-02-11T04:07:56.326Z,9.30
2023-02-11T04:10:22.904Z,9.30
2023-02-11T04:12:49.473Z,9.30
2023-02-11T04:15:20.841Z,9.30
2023-02-11T04:17:47.410Z,9.30
2023-02-11T04:20:14.491Z,9.30
2023-02-11T04:22:41.103Z,9.40
2023-02-11T04:25:10.728Z,9.30
2023-02-11T04:27:39.848Z,9.30
2023-02-11T04:30:07.704Z,9.40
2023-02-11T04:32:36.756Z,9.40
2023-02-11T04:35:05.758Z,9.40
2023-02-11T04:37:34.751Z,9.30
2023-02-11T04:40:01.461Z,9.30
2023-02-11T04:42:28.129Z,9.30
2023-02-11T04:44:54.708Z,9.30
2023-02-11T04:47:26.193Z,9.30
2023-02-11T04:49:57.921Z,9.20
2023-02-11T04:52:24.567Z,9.20
2023-02-11T04:54:53.666Z,9.20
2023-02-11T04:57:23.170Z,9.20
2023-02-11T04:59:49.990Z,9.20
2023-02-11T05:02:22.806Z,9.20
2023-02-11T05:04:49.358Z,9.20
2023-02-11T05:07:21.197Z,9.20
2023-02-11T05:09:47.731Z,9.20
2023-02-11T05:12:14.440Z,9.20
2023-02-11T05:14:41.323Z,9.20
2023-02-11T05:17:12.787Z,9.20
2023-02-11T05:19:39.352Z,9.30
2023-02-11T05:22:08.589Z,9.30
2023-02-11T05:24:36.378Z,9.30
2023-02-11T05:27:05.399Z,9.30
2023-02-11T05:29:34.442Z,9.30
2023-02-11T05:32:06.126Z,9.30
2023-02-11T05:34:32.795Z,9.30
2023-02-11T05:37:01.967Z,9.40
2023-02-11T05:39:31.094Z,9.30
2023-02-11T05:42:02.594Z,9.40
2023-02-11T05:44:31.656Z,9.40
2023-02-11T05:46:58.198Z,9.40
2023-02-11T05:49:24.880Z,9.40
2023-02-11T05:52:05.374Z,9.40
2023-02-11T05:54:36.109Z,9.40
2023-02-11T05:57:08.671Z,9.40
2023-02-11T05:59:35.425Z,9.40
2023-02-11T06:02:04.384Z,9.40
2023-02-11T06:04:33.411Z,9.40
2023-02-11T06:07:01.810Z,9.40
2023-02-11T06:09:29.410Z,9.40
2023-02-11T06:12:01.542Z,9.40
2023-02-11T06:14:33.682Z,9.40
2023-02-11T06:17:02.933Z,9.40
2023-02-11T06:19:31.963Z,9.40
2023-02-11T06:22:00.980Z,9.40
2023-02-11T06:24:51.034Z,9.40
2023-02-11T06:27:19.174Z,9.40
2023-02-11T06:29:46.229Z,9.40
2023-02-11T06:32:36.897Z,9.40
2023-02-11T06:35:04.706Z,9.40
2023-02-11T06:37:31.287Z,9.40
2023-02-11T06:40:00.350Z,9.40
2023-02-11T06:42:37.976Z,9.40
2023-02-11T06:45:07.938Z,9.40
2023-02-11T06:47:37.530Z,9.40
2023-02-11T06:50:05.670Z,9.40
2023-02-11T06:52:37.505Z,9.40
2023-02-11T06:55:08.790Z,9.40
2023-02-11T06:57:35.417Z,9.50
2023-02-11T07:00:02.432Z,9.50
2023-02-11T07:02:30.094Z,9.40
2023-02-11T07:05:03.038Z,9.40
2023-02-11T07:07:34.213Z,9.50
2023-02-11T07:10:04.082Z,9.50
2023-02-11T07:12:31.745Z,9.50
2023-02-11T07:14:58.303Z,9.50
2023-02-11T07:17:27.435Z,9.50
2023-02-11T07:20:01.278Z,9.50
2023-02-11T07:22:33.354Z,9.50
2023-02-11T07:25:05.302Z,9.50
2023-02-11T07:27:31.998Z,9.50
2023-02-11T07:30:04.915Z,9.50
2023-02-11T07:32:35.806Z,9.60
2023-02-11T07:35:03.671Z,9.60
2023-02-11T07:37:30.274Z,9.60
2023-02-11T07:39:56.870Z,9.60
2023-02-11T07:42:23.979Z,9.60
2023-02-11T07:44:50.781Z,9.60
2023-02-11T07:47:17.402Z,9.60
2023-02-11T07:49:44.073Z,9.60
2023-02-11T07:52:10.684Z,9.60
2023-02-11T07:54:37.328Z,9.60
2023-02-11T07:57:03.938Z,9.70
2023-02-11T07:59:30.531Z,9.60
2023-02-11T08:01:57.224Z,9.70
2023-02-11T08:04:23.812Z,9.70
2023-02-11T08:06:52.623Z,9.70
2023-02-11T08:09:19.302Z,9.70
2023-02-11T08:11:45.882Z,9.70
2023-02-11T08:14:13.646Z,9.70
2023-02-11T08:16:40.660Z,9.70
2023-02-11T08:19:14.040Z,9.70
2023-02-11T08:21:41.183Z,9.70
2023-02-11T08:24:08.606Z,9.80
2023-02-11T08:26:35.934Z,9.80
2023-02-11T08:29:07.264Z,9.80
2023-02-11T08:31:37.250Z,9.80
2023-02-11T08:34:03.915Z,9.80
2023-02-11T08:36:33.995Z,9.80
2023-02-11T08:39:18.009Z,9.90
2023-02-11T08:41:48.594Z,9.90
2023-02-11T08:44:15.308Z,9.90
2023-02-11T08:46:41.889Z,9.90
2023-02-11T08:49:08.552Z,9.90
2023-02-11T08:51:35.146Z,9.90
2023-02-11T08:54:02.168Z,10.00
2023-02-11T08:56:31.265Z,10.00
2023-02-11T08:58:59.886Z,10.00
2023-02-11T09:01:29.540Z,10.00
2023-02-11T09:03:57.148Z,10.10
2023-02-11T09:06:24.864Z,10.00
2023-02-11T09:08:54.973Z,10.10
2023-02-11T09:11:26.310Z,10.10
2023-02-11T09:13:54.513Z,10.10
2023-02-11T09:16:27.432Z,10.10
2023-02-11T09:18:56.290Z,10.10
2023-02-11T09:21:23.140Z,10.10
2023-02-11T09:23:49.812Z,10.20
2023-02-11T09:26:21.354Z,10.20
2023-02-11T09:28:48.758Z,10.20
2023-02-11T09:31:18.834Z,10.20
2023-02-11T09:33:48.296Z,10.20
2023-02-11T09:36:20.011Z,10.20
2023-02-11T09:38:47.680Z,10.30
2023-02-11T09:41:56.292Z,10.20
2023-02-11T09:44:29.267Z,10.30
2023-02-11T09:47:02.633Z,10.30
2023-02-11T09:49:36.906Z,10.40
2023-02-11T09:52:35.344Z,10.40
2023-02-11T09:55:18.567Z,10.40
2023-02-11T09:57:45.381Z,10.40
2023-02-11T10:00:23.828Z,10.40
2023-02-11T10:03:08.903Z,10.40
2023-02-11T10:05:56.343Z,10.40
2023-02-11T10:08:41.251Z,10.50
2023-02-11T10:11:32.051Z,10.50
2023-02-11T10:14:19.981Z,10.50
2023-02-11T10:17:09.047Z,10.50
2023-02-11T10:19:41.124Z,10.50
2023-02-11T10:22:19.946Z,10.50
2023-02-11T10:25:00.407Z,10.50
2023-02-11T10:27:32.862Z,10.60
2023-02-11T10:30:15.915Z,10.60
2023-02-11T10:33:02.041Z,10.60
2023-02-11T10:35:32.105Z,10.60
2023-02-11T10:37:59.820Z,10.60
2023-02-11T10:40:30.857Z,10.70
2023-02-11T10:43:00.902Z,10.60
2023-02-11T10:45:44.037Z,10.70
2023-02-11T10:48:41.938Z,10.70
2023-02-11T10:51:19.002Z,10.80
2023-02-11T10:53:47.193Z,10.80
2023-02-11T10:56:24.126Z,10.80
2023-02-11T10:59:05.557Z,10.80
2023-02-11T11:01:58.933Z,10.90
2023-02-11T11:04:37.064Z,10.90
2023-02-11T11:07:21.930Z,10.90
2023-02-11T11:09:56.664Z,10.90
2023-02-11T11:12:28.173Z,10.90
2023-02-11T11:15:23.306Z,10.90
2023-02-11T11:17:51.604Z,11.00
2023-02-11T11:20:28.012Z,11.00
2023-02-11T11:23:19.573Z,11.00
2023-02-11T11:26:18.762Z,11.10
2023-02-11T11:28:59.653Z,11.10
2023-02-11T11:31:37.430Z,11.10
2023-02-11T11:34:23.000Z,11.20
2023-02-11T11:36:50.238Z,11.20
2023-02-11T11:39:32.047Z,11.20
2023-02-11T11:41:59.883Z,11.20
2023-02-11T11:44:35.972Z,11.20
2023-02-11T11:47:11.235Z,11.20
2023-02-11T11:49:45.470Z,11.20
2023-02-11T11:52:32.660Z,11.20
2023-02-11T11:55:07.751Z,11.20
2023-02-11T11:57:37.715Z,11.20
2023-02-11T12:00:05.183Z,11.20
2023-02-11T12:02:32.771Z,11.20
2023-02-11T12:05:08.315Z,11.30
2023-02-11T12:08:07.931Z,11.30
2023-02-11T12:10:58.483Z,11.30
2023-02-11T12:13:55.046Z,11.30
2023-02-11T12:16:59.034Z,11.40
2023-02-11T12:19:52.746Z,11.40
2023-02-11T12:22:40.967Z,11.40
2023-02-11T12:25:26.109Z,11.50
2023-02-11T12:28:01.796Z,11.40
2023-02-11T12:30:49.014Z,11.50
2023-02-11T12:33:36.959Z,11.50
2023-02-11T12:36:06.505Z,11.60
2023-02-11T12:39:09.108Z,11.60
2023-02-11T12:42:28.534Z,11.60
2023-02-11T12:45:16.038Z,11.70
2023-02-11T12:47:54.489Z,11.70
2023-02-11T12:50:27.669Z,11.70
2023-02-11T12:53:23.654Z,11.70
2023-02-11T12:55:57.833Z,11.80
2023-02-11T12:58:42.933Z,11.80
2023-02-11T13:01:23.478Z,11.80
2023-02-11T13:03:58.791Z,11.90
2023-02-11T13:06:44.353Z,11.90
2023-02-11T13:09:18.891Z,11.90
2023-02-11T13:11:51.855Z,12.00
2023-02-11T13:14:28.256Z,12.00
2023-02-11T13:16:56.922Z,12.00
2023-02-11T13:19:31.382Z,12.00
2023-02-11T13:22:18.828Z,12.10
2023-02-11T13:25:06.490Z,12.10
2023-02-11T13:28:02.413Z,12.10
2023-02-11T13:30:34.405Z,12.10
2023-02-11T13:33:00.987Z,12.10
2023-02-11T13:35:31.934Z,12.20
2023-02-11T13:38:05.389Z,12.20
2023-02-11T13:40:38.147Z,12.20
2023-02-11T13:43:06.979Z,12.20
2023-02-11T13:45:44.891Z,12.20
2023-02-11T13:48:30.817Z,12.20
2023-02-11T13:51:07.633Z,12.30
2023-02-11T13:53:48.680Z,12.30
2023-02-11T13:56:33.773Z,12.40
2023-02-11T13:59:03.319Z,12.40
2023-02-11T14:02:13.842Z,12.40
2023-02-11T14:05:21.518Z,12.50
2023-02-11T14:08:28.634Z,12.50
2023-02-11T14:11:25.043Z,12.60
2023-02-11T14:13:51.647Z,12.60
2023-02-11T14:16:36.388Z,12.60
2023-02-11T14:19:03.848Z,12.60
2023-02-11T14:21:36.574Z,12.60
2023-02-11T14:24:04.729Z,12.60
2023-02-11T14:26:41.341Z,12.60
2023-02-11T14:29:22.779Z,12.60
2023-02-11T14:32:15.516Z,12.70
2023-02-11T14:34:57.048Z,12.60
2023-02-11T14:37:50.039Z,12.70
2023-02-11T14:40:52.955Z,12.60
2023-02-11T14:43:31.301Z,12.70
2023-02-11T14:46:01.172Z,12.60
2023-02-11T14:48:31.124Z,12.60
2023-02-11T14:51:33.247Z,12.60
2023-02-11T14:54:25.186Z,12.60
2023-02-11T14:57:24.954Z,12.70
2023-02-11T14:59:58.673Z,12.70
2023-02-11T15:02:34.632Z,12.70
2023-02-11T15:05:26.001Z,12.70
2023-02-11T15:08:01.600Z,12.70
2023-02-11T15:10:35.824Z,12.70
2023-02-11T15:13:04.480Z,12.70
2023-02-11T15:15:33.543Z,12.60
2023-02-11T15:18:03.368Z,12.60
2023-02-11T15:20:32.854Z,12.60
2023-02-11T15:23:03.190Z,12.60
2023-02-11T15:25:32.320Z,12.60
2023-02-11T15:28:21.634Z,12.60
2023-02-11T15:31:00.895Z,12.60
2023-02-11T15:33:30.518Z,12.60
2023-02-11T15:35:58.026Z,12.60
2023-02-11T15:38:27.764Z,12.50
2023-02-11T15:41:00.797Z,12.50
2023-02-11T15:43:43.834Z,12.50
2023-02-11T15:46:14.278Z,12.50
2023-02-11T15:48:47.247Z,12.50
2023-02-11T15:51:22.214Z,12.50
2023-02-11T15:53:56.890Z,12.40
2023-02-11T15:56:37.414Z,12.40
2023-02-11T15:59:25.598Z,12.40
2023-02-11T16:01:53.218Z,12.40
2023-02-11T16:04:25.890Z,12.30
2023-02-11T16:06:54.484Z,12.30
2023-02-11T16:09:34.409Z,12.30
2023-02-11T16:12:07.281Z,12.20
2023-02-11T16:14:39.194Z,12.20
2023-02-11T16:17:17.213Z,12.20
2023-02-11T16:19:47.279Z,12.20
2023-02-11T16:22:22.949Z,12.20
2023-02-11T16:24:52.586Z,12.20
2023-02-11T16:27:23.860Z,12.20
2023-02-11T16:29:51.701Z,12.10
2023-02-11T16:32:21.571Z,12.10
2023-02-11T16:34:48.866Z,12.10
2023-02-11T16:37:15.973Z,12.10
2023-02-11T16:39:42.602Z,12.10
2023-02-11T16:42:11.498Z,12.10
2023-02-11T16:44:38.672Z,12.10
2023-02-11T16:47:08.133Z,12.10
2023-02-11T16:49:38.266Z,12.00
2023-02-11T16:52:12.678Z,12.00
2023-02-11T16:54:39.370Z,12.00
2023-02-11T16:57:14.585Z,12.00
2023-02-11T16:59:41.491Z,12.00
2023-02-11T17:02:27.778Z,12.00
2023-02-11T17:04:55.987Z,12.00
2023-02-11T17:07:22.799Z,12.00
2023-02-11T17:09:49.471Z,12.00
2023-02-11T17:12:16.046Z,11.90
2023-02-11T17:14:42.581Z,11.90
2023-02-11T17:17:10.228Z,11.90
2023-02-11T17:19:37.307Z,11.90
2023-02-11T17:22:04.337Z,11.90
2023-02-11T17:24:31.282Z,11.90
2023-02-11T17:26:58.020Z,11.90
2023-02-11T17:29:25.986Z,11.90
2023-02-11T17:31:53.042Z,11.80
2023-02-11T17:34:21.366Z,11.80
2023-02-11T17:36:50.643Z,11.80
2023-02-11T17:39:20.947Z,11.80
2023-02-11T17:41:47.672Z,11.80
2023-02-11T17:44:16.617Z,11.80
2023-02-11T17:46:43.847Z,11.80
2023-02-11T17:49:12.713Z,11.80
2023-02-11T17:51:45.566Z,11.80
2023-02-11T17:54:17.997Z,11.70
2023-02-11T17:56:50.553Z,11.70
2023-02-11T17:59:17.610Z,11.80
2023-02-11T18:01:46.322Z,11.70
2023-02-11T18:04:15.967Z,11.70
2023-02-11T18:06:44.316Z,11.70
2023-02-11T18:09:11.317Z,11.70
2023-02-11T18:11:38.955Z,11.70
2023-02-11T18:14:07.633Z,11.70
2023-02-11T18:16:40.730Z,11.70
2023-02-11T18:19:07.863Z,11.70
2023-02-11T18:21:34.640Z,11.70
2023-02-11T18:24:06.447Z,11.60
2023-02-11T18:26:33.854Z,11.60
2023-02-11T18:29:05.934Z,11.70
2023-02-11T18:31:35.077Z,11.60
2023-02-11T18:34:05.744Z,11.60
2023-02-11T18:36:32.639Z,11.60
2023-02-11T18:39:04.621Z,11.60
2023-02-11T18:41:31.281Z,11.60
2023-02-11T18:43:58.664Z,11.60
2023-02-11T18:46:25.399Z,11.50
2023-02-11T18:48:55.570Z,11.50
2023-02-11T18:51:23.000Z,11.50
2023-02-11T18:53:49.660Z,11.50
2023-02-11T18:56:22.037Z,11.50
2023-02-11T18:58:51.947Z,11.50
2023-02-11T19:01:26.970Z,11.50
2023-02-11T19:03:55.457Z,11.50
2023-02-11T19:06:31.806Z,11.50
2023-02-11T19:09:08.774Z,11.50
2023-02-11T19:11:54.650Z,11.50
2023-02-11T19:14:27.128Z,11.40
2023-02-11T19:17:00.384Z,11.50
2023-02-11T19:19:31.849Z,11.40
2023-02-11T19:22:02.979Z,11.40
2023-02-11T19:24:30.127Z,11.40
2023-02-11T19:26:59.630Z,11.40
2023-02-11T19:29:26.748Z,11.40
2023-02-11T19:32:07.718Z,11.40
2023-02-11T19:34:40.993Z,11.40
2023-02-11T19:37:11.620Z,11.40
2023-02-11T19:39:43.706Z,11.40
2023-02-11T19:42:11.186Z,11.40
2023-02-11T19:44:38.127Z,11.40
2023-02-11T19:47:07.192Z,11.40
2023-02-11T19:49:34.383Z,11.40
2023-02-11T19:52:00.953Z,11.40
2023-02-11T19:54:32.684Z,11.40
2023-02-11T19:57:03.476Z,11.30
2023-02-11T19:59:30.216Z,11.40
2023-02-11T20:01:57.479Z,11.40
2023-02-11T20:04:26.466Z,11.40
2023-02-11T20:06:55.182Z,11.40
2023-02-11T20:09:24.084Z,11.40
2023-02-11T20:11:55.840Z,11.40
2023-02-11T20:14:27.739Z,11.40
2023-02-11T20:16:54.540Z,11.40
2023-02-11T20:19:24.649Z,11.40
2023-02-11T20:21:57.792Z,11.40
2023-02-11T20:24:25.617Z,11.30
2023-02-11T20:27:01.005Z,11.40
2023-02-11T20:29:37.762Z,11.40
2023-02-11T20:32:08.052Z,11.40
2023-02-11T20:34:34.816Z,11.30
2023-02-11T20:37:06.511Z,11.30
2023-02-11T20:39:37.249Z,11.30
2023-02-11T20:42:06.311Z,11.40
2023-02-11T20:44:32.902Z,11.30
2023-02-11T20:47:02.076Z,11.30
2023-02-11T20:49:29.884Z,11.40
2023-02-11T20:52:00.733Z,11.40
2023-02-11T20:54:27.486Z,11.30
2023-02-11T20:56:58.962Z,11.40
2023-02-11T20:59:26.872Z,11.40
2023-02-11T21:01:57.802Z,11.40
2023-02-11T21:04:38.500Z,11.40
2023-02-11T21:07:12.884Z,11.30
2023-02-11T21:09:39.951Z,11.30
2023-02-11T21:12:07.647Z,11.40
2023-02-11T21:14:38.843Z,11.40
2023-02-11T21:17:09.233Z,11.40
2023-02-11T21:19:43.810Z,11.30
2023-02-11T21:22:15.402Z,11.30
2023-02-11T21:24:44.354Z,11.30
2023-02-11T21:27:13.780Z,11.30
2023-02-11T21:29:52.797Z,11.30
2023-02-11T21:32:22.259Z,11.30
2023-02-11T21:34:49.075Z,11.30
2023-02-11T21:37:18.128Z,11.30
2023-02-11T21:39:46.833Z,11.30
2023-02-11T21:42:15.793Z,11.30
2023-02-11T21:44:42.511Z,11.30
2023-02-11T21:47:09.091Z,11.30
2023-02-11T21:49:37.123Z,11.30
2023-02-11T21:52:11.753Z,11.30
2023-02-11T21:54:40.978Z,11.30
2023-02-11T21:57:09.842Z,11.30
2023-02-11T21:59:36.389Z,11.30
2023-02-11T22:02:06.000Z,11.30
2023-02-11T22:04:37.510Z,11.30
2023-02-11T22:07:07.692Z,11.20
2023-02-11T22:09:41.427Z,11.20
2023-02-11T22:12:25.067Z,11.30
2023-02-11T22:14:51.675Z,11.30
2023-02-11T22:17:22.925Z,11.20
2023-02-11T22:19:49.769Z,11.30
2023-02-11T22:22:18.180Z,11.20
2023-02-11T22:24:47.252Z,11.20
2023-02-11T22:27:21.171Z,11.30
2023-02-11T22:29:50.147Z,11.20
2023-02-11T22:32:21.446Z,11.20
2023-02-11T22:34:48.108Z,11.20
2023-02-11T22:37:14.951Z,11.20
2023-02-11T22:39:42.537Z,11.30
2023-02-11T22:42:11.942Z,11.30
2023-02-11T22:44:43.979Z,11.20
2023-02-11T22:47:10.601Z,11.30
2023-02-11T22:49:37.392Z,11.20
2023-02-11T22:52:08.967Z,11.20
2023-02-11T22:54:41.546Z,11.20
2023-02-11T22:57:08.328Z,11.20
2023-02-11T22:59:35.907Z,11.20
2023-02-11T23:02:02.614Z,11.20
2023-02-11T23:04:29.274Z,11.20
2023-02-11T23:06:55.857Z,11.20
2023-02-11T23:09:22.536Z,11.20
2023-02-11T23:11:54.174Z,11.20
2023-02-11T23:14:21.294Z,11.20
2023-02-11T23:16:49.866Z,11.20
2023-02-11T23:19:16.951Z,11.20
2023-02-11T23:21:47.099Z,11.20
2023-02-11T23:24:15.686Z,11.10
2023-02-11T23:26:43.849Z,11.20
2023-02-11T23:29:13.343Z,11.20
2023-02-11T23:31:45.110Z,11.20
2023-02-11T23:34:18.978Z,11.20
2023-02-11T23:36:45.612Z,11.10
2023-02-11T23:39:16.760Z,11.10
2023-02-11T23:41:43.390Z,11.10
2023-02-11T23:44:10.835Z,11.10
2023-02-11T23:46:38.935Z,11.10
2023-02-11T23:49:08.008Z,11.10
2023-02-11T23:51:34.585Z,11.10
2023-02-11T23:54:02.299Z,11.10
2023-02-11T23:56:29.152Z,11.10
2023-02-11T23:58:58.941Z,11.20
